sensor_id;sensor_type;location;lat;lon;timestamp;P1;durP1;ratioP1;P2;durP2;ratioP2
908;SDS011;441;51.192;6.788;2023-12-28T00:01:47;16.30;;;15.70;;
908;SDS011;441;51.192;6.788;2023-12-28T00:04:17;16.77;;;15.97;;
908;SDS011;441;51.192;6.788;2023-12-28T00:06:43;17.20;;;16.50;;
908;SDS011;441;51.192;6.788;2023-12-28T00:09:10;16.73;;;16.10;;
908;SDS011;441;51.192;6.788;2023-12-28T00:11:36;17.13;;;16.43;;
908;SDS011;441;51.192;6.788;2023-12-28T00:14:03;17.30;;;16.50;;
908;SDS011;441;51.192;6.788;2023-12-28T00:16:30;16.10;;;15.40;;
908;SDS011;441;51.192;6.788;2023-12-28T00:18:59;16.20;;;15.50;;
908;SDS011;441;51.192;6.788;2023-12-28T00:21:28;17.37;;;16.67;;
908;SDS011;441;51.192;6.788;2023-12-28T00:23:55;16.53;;;15.73;;
908;SDS011;441;51.192;6.788;2023-12-28T00:26:22;16.60;;;15.90;;
908;SDS011;441;51.192;6.788;2023-12-28T00:28:49;16.53;;;15.77;;
908;SDS011;441;51.192;6.788;2023-12-28T00:31:16;16.30;;;15.57;;
908;SDS011;441;51.192;6.788;2023-12-28T00:33:43;15.77;;;15.17;;
908;SDS011;441;51.192;6.788;2023-12-28T00:36:10;16.63;;;16.03;;
908;SDS011;441;51.192;6.788;2023-12-28T00:38:38;16.13;;;15.63;;
908;SDS011;441;51.192;6.788;2023-12-28T00:41:05;15.03;;;14.53;;
908;SDS011;441;51.192;6.788;2023-12-28T00:43:32;15.20;;;14.67;;
908;SDS011;441;51.192;6.788;2023-12-28T00:45:58;15.97;;;15.37;;
908;SDS011;441;51.192;6.788;2023-12-28T00:48:25;16.47;;;15.77;;
908;SDS011;441;51.192;6.788;2023-12-28T00:50:52;16.53;;;15.93;;
908;SDS011;441;51.192;6.788;2023-12-28T00:53:20;15.97;;;15.37;;
908;SDS011;441;51.192;6.788;2023-12-28T00:55:49;16.07;;;15.47;;
908;SDS011;441;51.192;6.788;2023-12-28T00:58:16;15.63;;;15.03;;
908;SDS011;441;51.192;6.788;2023-12-28T01:00:43;15.57;;;14.97;;
908;SDS011;441;51.192;6.788;2023-12-28T01:03:10;14.53;;;14.13;;
908;SDS011;441;51.192;6.788;2023-12-28T01:05:36;15.60;;;15.10;;
908;SDS011;441;51.192;6.788;2023-12-28T01:08:03;16.30;;;15.67;;
908;SDS011;441;51.192;6.788;2023-12-28T01:10:30;15.90;;;15.40;;
908;SDS011;441;51.192;6.788;2023-12-28T01:12:59;16.97;;;16.37;;
908;SDS011;441;51.192;6.788;2023-12-28T01:15:26;15.33;;;14.83;;
908;SDS011;441;51.192;6.788;2023-12-28T01:17:53;14.83;;;14.43;;
908;SDS011;441;51.192;6.788;2023-12-28T01:20:19;16.77;;;16.07;;
908;SDS011;441;51.192;6.788;2023-12-28T01:22:46;16.50;;;16.00;;
908;SDS011;441;51.192;6.788;2023-12-28T01:25:14;16.23;;;15.70;;
908;SDS011;441;51.192;6.788;2023-12-28T01:27:41;15.60;;;15.10;;
908;SDS011;441;51.192;6.788;2023-12-28T01:30:10;17.10;;;16.30;;
908;SDS011;441;51.192;6.788;2023-12-28T01:32:37;15.47;;;14.97;;
908;SDS011;441;51.192;6.788;2023-12-28T01:35:04;15.90;;;15.40;;
908;SDS011;441;51.192;6.788;2023-12-28T01:37:32;16.50;;;15.90;;
908;SDS011;441;51.192;6.788;2023-12-28T01:39:59;17.10;;;16.50;;
908;SDS011;441;51.192;6.788;2023-12-28T01:42:25;16.43;;;15.87;;
908;SDS011;441;51.192;6.788;2023-12-28T01:44:55;15.70;;;15.20;;
908;SDS011;441;51.192;6.788;2023-12-28T01:47:23;17.17;;;16.57;;
908;SDS011;441;51.192;6.788;2023-12-28T01:49:51;16.83;;;16.23;;
908;SDS011;441;51.192;6.788;2023-12-28T01:52:19;15.30;;;14.80;;
908;SDS011;441;51.192;6.788;2023-12-28T01:54:46;16.17;;;15.50;;
908;SDS011;441;51.192;6.788;2023-12-28T01:57:14;15.77;;;15.27;;
908;SDS011;441;51.192;6.788;2023-12-28T01:59:43;14.87;;;14.47;;
908;SDS011;441;51.192;6.788;2023-12-28T02:02:10;15.87;;;15.37;;
908;SDS011;441;51.192;6.788;2023-12-28T02:04:39;15.40;;;14.87;;
908;SDS011;441;51.192;6.788;2023-12-28T02:07:06;15.60;;;15.17;;
908;SDS011;441;51.192;6.788;2023-12-28T02:09:34;15.70;;;15.20;;
908;SDS011;441;51.192;6.788;2023-12-28T02:12:01;16.07;;;15.47;;
908;SDS011;441;51.192;6.788;2023-12-28T02:14:28;15.13;;;14.53;;
908;SDS011;441;51.192;6.788;2023-12-28T02:16:58;15.10;;;14.70;;
908;SDS011;441;51.192;6.788;2023-12-28T02:19:38;15.10;;;14.60;;
908;SDS011;441;51.192;6.788;2023-12-28T02:22:10;14.80;;;14.40;;
908;SDS011;441;51.192;6.788;2023-12-28T02:27:33;15.30;;;14.90;;
908;SDS011;441;51.192;6.788;2023-12-28T02:30:03;15.73;;;15.20;;
908;SDS011;441;51.192;6.788;2023-12-28T02:32:40;15.50;;;15.00;;
908;SDS011;441;51.192;6.788;2023-12-28T02:35:16;14.90;;;14.50;;
908;SDS011;441;51.192;6.788;2023-12-28T02:37:46;15.17;;;14.67;;
908;SDS011;441;51.192;6.788;2023-12-28T02:40:19;16.13;;;15.57;;
908;SDS011;441;51.192;6.788;2023-12-28T02:42:47;15.20;;;14.80;;
908;SDS011;441;51.192;6.788;2023-12-28T02:45:14;15.67;;;15.17;;
908;SDS011;441;51.192;6.788;2023-12-28T02:47:41;15.23;;;14.83;;
908;SDS011;441;51.192;6.788;2023-12-28T02:50:09;15.40;;;14.70;;
908;SDS011;441;51.192;6.788;2023-12-28T02:52:36;14.57;;;14.17;;
908;SDS011;441;51.192;6.788;2023-12-28T02:55:03;14.33;;;13.93;;
908;SDS011;441;51.192;6.788;2023-12-28T02:57:32;15.70;;;15.10;;
908;SDS011;441;51.192;6.788;2023-12-28T03:00:02;16.23;;;15.30;;
908;SDS011;441;51.192;6.788;2023-12-28T03:02:31;15.30;;;14.80;;
908;SDS011;441;51.192;6.788;2023-12-28T03:04:58;15.63;;;15.13;;
908;SDS011;441;51.192;6.788;2023-12-28T03:07:25;15.60;;;15.20;;
908;SDS011;441;51.192;6.788;2023-12-28T03:09:52;15.63;;;15.20;;
908;SDS011;441;51.192;6.788;2023-12-28T03:12:19;14.90;;;14.50;;
908;SDS011;441;51.192;6.788;2023-12-28T03:14:47;15.33;;;14.83;;
908;SDS011;441;51.192;6.788;2023-12-28T03:17:14;15.90;;;15.40;;
908;SDS011;441;51.192;6.788;2023-12-28T03:19:41;15.03;;;14.63;;
908;SDS011;441;51.192;6.788;2023-12-28T03:22:08;14.80;;;14.40;;
908;SDS011;441;51.192;6.788;2023-12-28T03:24:36;15.97;;;15.37;;
908;SDS011;441;51.192;6.788;2023-12-28T03:27:03;16.00;;;15.50;;
908;SDS011;441;51.192;6.788;2023-12-28T03:29:30;16.30;;;15.80;;
908;SDS011;441;51.192;6.788;2023-12-28T03:31:58;16.70;;;16.20;;
908;SDS011;441;51.192;6.788;2023-12-28T03:34:25;17.20;;;16.50;;
908;SDS011;441;51.192;6.788;2023-12-28T03:36:54;17.10;;;16.40;;
908;SDS011;441;51.192;6.788;2023-12-28T03:39:22;15.80;;;15.40;;
908;SDS011;441;51.192;6.788;2023-12-28T03:41:49;16.30;;;15.70;;
908;SDS011;441;51.192;6.788;2023-12-28T03:44:17;15.40;;;14.90;;
908;SDS011;441;51.192;6.788;2023-12-28T03:46:45;15.90;;;15.50;;
908;SDS011;441;51.192;6.788;2023-12-28T03:49:13;16.50;;;16.00;;
908;SDS011;441;51.192;6.788;2023-12-28T03:51:42;15.73;;;15.33;;
908;SDS011;441;51.192;6.788;2023-12-28T03:54:09;15.03;;;14.63;;
908;SDS011;441;51.192;6.788;2023-12-28T03:56:36;16.00;;;15.60;;
908;SDS011;441;51.192;6.788;2023-12-28T03:59:04;15.77;;;15.37;;
908;SDS011;441;51.192;6.788;2023-12-28T04:01:32;14.90;;;14.50;;
908;SDS011;441;51.192;6.788;2023-12-28T04:03:59;16.90;;;16.30;;
908;SDS011;441;51.192;6.788;2023-12-28T04:06:27;16.47;;;15.97;;
908;SDS011;441;51.192;6.788;2023-12-28T04:08:54;16.73;;;16.23;;
908;SDS011;441;51.192;6.788;2023-12-28T04:11:22;15.70;;;15.30;;
908;SDS011;441;51.192;6.788;2023-12-28T04:13:49;16.70;;;16.20;;
908;SDS011;441;51.192;6.788;2023-12-28T04:16:16;15.80;;;15.40;;
908;SDS011;441;51.192;6.788;2023-12-28T04:18:43;16.07;;;15.67;;
908;SDS011;441;51.192;6.788;2023-12-28T04:21:10;15.70;;;15.20;;
908;SDS011;441;51.192;6.788;2023-12-28T04:23:40;15.90;;;15.40;;
908;SDS011;441;51.192;6.788;2023-12-28T04:26:08;16.03;;;15.43;;
908;SDS011;441;51.192;6.788;2023-12-28T04:28:34;15.60;;;15.20;;
908;SDS011;441;51.192;6.788;2023-12-28T04:31:02;16.27;;;15.77;;
908;SDS011;441;51.192;6.788;2023-12-28T04:33:30;16.00;;;15.50;;
908;SDS011;441;51.192;6.788;2023-12-28T04:35:57;15.60;;;15.20;;
908;SDS011;441;51.192;6.788;2023-12-28T04:38:26;16.00;;;15.60;;
908;SDS011;441;51.192;6.788;2023-12-28T04:40:54;16.17;;;15.67;;
908;SDS011;441;51.192;6.788;2023-12-28T04:43:22;15.80;;;15.30;;
908;SDS011;441;51.192;6.788;2023-12-28T04:45:49;15.47;;;15.07;;
908;SDS011;441;51.192;6.788;2023-12-28T04:48:16;15.67;;;15.27;;
908;SDS011;441;51.192;6.788;2023-12-28T04:50:46;15.93;;;15.43;;
908;SDS011;441;51.192;6.788;2023-12-28T04:53:13;15.00;;;14.60;;
908;SDS011;441;51.192;6.788;2023-12-28T04:55:40;14.90;;;14.50;;
908;SDS011;441;51.192;6.788;2023-12-28T04:58:09;15.70;;;15.30;;
908;SDS011;441;51.192;6.788;2023-12-28T05:00:37;15.40;;;15.00;;
908;SDS011;441;51.192;6.788;2023-12-28T05:03:04;17.80;;;17.30;;
908;SDS011;441;51.192;6.788;2023-12-28T05:05:32;16.80;;;16.30;;
908;SDS011;441;51.192;6.788;2023-12-28T05:07:59;17.83;;;17.33;;
908;SDS011;441;51.192;6.788;2023-12-28T05:10:25;15.77;;;15.30;;
908;SDS011;441;51.192;6.788;2023-12-28T05:12:52;18.90;;;18.30;;
908;SDS011;441;51.192;6.788;2023-12-28T05:15:21;16.60;;;16.10;;
908;SDS011;441;51.192;6.788;2023-12-28T05:17:47;17.30;;;16.80;;
908;SDS011;441;51.192;6.788;2023-12-28T05:20:15;17.67;;;17.07;;
908;SDS011;441;51.192;6.788;2023-12-28T05:22:43;17.40;;;16.90;;
908;SDS011;441;51.192;6.788;2023-12-28T05:25:10;17.23;;;16.73;;
908;SDS011;441;51.192;6.788;2023-12-28T05:27:37;17.50;;;17.00;;
908;SDS011;441;51.192;6.788;2023-12-28T05:30:05;17.40;;;16.90;;
908;SDS011;441;51.192;6.788;2023-12-28T05:32:34;17.50;;;17.00;;
908;SDS011;441;51.192;6.788;2023-12-28T05:35:01;17.67;;;17.17;;
908;SDS011;441;51.192;6.788;2023-12-28T05:37:28;17.60;;;17.10;;
908;SDS011;441;51.192;6.788;2023-12-28T05:39:55;19.90;;;19.30;;
908;SDS011;441;51.192;6.788;2023-12-28T05:42:22;18.90;;;18.30;;
908;SDS011;441;51.192;6.788;2023-12-28T05:44:49;18.40;;;17.90;;
908;SDS011;441;51.192;6.788;2023-12-28T05:47:16;19.60;;;19.00;;
908;SDS011;441;51.192;6.788;2023-12-28T05:49:44;18.40;;;17.80;;
908;SDS011;441;51.192;6.788;2023-12-28T05:52:11;19.47;;;18.87;;
908;SDS011;441;51.192;6.788;2023-12-28T05:54:40;19.10;;;18.60;;
908;SDS011;441;51.192;6.788;2023-12-28T05:57:07;19.90;;;19.30;;
908;SDS011;441;51.192;6.788;2023-12-28T05:59:37;20.60;;;20.00;;
908;SDS011;441;51.192;6.788;2023-12-28T06:02:04;20.63;;;20.03;;
908;SDS011;441;51.192;6.788;2023-12-28T06:04:31;20.73;;;20.13;;
908;SDS011;441;51.192;6.788;2023-12-28T06:07:01;20.27;;;19.67;;
908;SDS011;441;51.192;6.788;2023-12-28T06:09:29;21.30;;;20.60;;
908;SDS011;441;51.192;6.788;2023-12-28T06:11:56;17.87;;;17.37;;
908;SDS011;441;51.192;6.788;2023-12-28T06:14:22;17.97;;;17.47;;
908;SDS011;441;51.192;6.788;2023-12-28T06:16:49;18.30;;;17.80;;
908;SDS011;441;51.192;6.788;2023-12-28T06:19:16;18.10;;;17.60;;
908;SDS011;441;51.192;6.788;2023-12-28T06:21:43;17.03;;;16.53;;
908;SDS011;441;51.192;6.788;2023-12-28T06:24:12;18.67;;;18.07;;
908;SDS011;441;51.192;6.788;2023-12-28T06:26:39;17.17;;;16.67;;
908;SDS011;441;51.192;6.788;2023-12-28T06:29:07;17.30;;;16.80;;
908;SDS011;441;51.192;6.788;2023-12-28T06:31:34;17.20;;;16.70;;
908;SDS011;441;51.192;6.788;2023-12-28T06:34:01;17.83;;;17.33;;
908;SDS011;441;51.192;6.788;2023-12-28T06:36:28;18.40;;;17.80;;
908;SDS011;441;51.192;6.788;2023-12-28T06:38:56;18.00;;;17.50;;
908;SDS011;441;51.192;6.788;2023-12-28T06:41:24;19.03;;;18.43;;
908;SDS011;441;51.192;6.788;2023-12-28T06:43:52;18.50;;;18.00;;
908;SDS011;441;51.192;6.788;2023-12-28T06:46:19;17.00;;;16.50;;
908;SDS011;441;51.192;6.788;2023-12-28T06:48:46;16.40;;;15.90;;
908;SDS011;441;51.192;6.788;2023-12-28T06:51:16;17.07;;;16.57;;
908;SDS011;441;51.192;6.788;2023-12-28T06:53:44;16.77;;;16.27;;
908;SDS011;441;51.192;6.788;2023-12-28T06:56:11;17.27;;;16.77;;
908;SDS011;441;51.192;6.788;2023-12-28T06:58:39;17.40;;;16.90;;
908;SDS011;441;51.192;6.788;2023-12-28T07:01:06;17.77;;;17.27;;
908;SDS011;441;51.192;6.788;2023-12-28T07:03:33;18.00;;;17.47;;
908;SDS011;441;51.192;6.788;2023-12-28T07:06:01;18.00;;;17.50;;
908;SDS011;441;51.192;6.788;2023-12-28T07:08:28;17.23;;;16.70;;
908;SDS011;441;51.192;6.788;2023-12-28T07:10:55;17.50;;;17.00;;
908;SDS011;441;51.192;6.788;2023-12-28T07:13:22;17.90;;;17.40;;
908;SDS011;441;51.192;6.788;2023-12-28T07:15:50;17.60;;;17.10;;
908;SDS011;441;51.192;6.788;2023-12-28T07:18:18;17.00;;;16.50;;
908;SDS011;441;51.192;6.788;2023-12-28T07:20:45;17.00;;;16.50;;
908;SDS011;441;51.192;6.788;2023-12-28T07:23:12;19.87;;;19.27;;
908;SDS011;441;51.192;6.788;2023-12-28T07:25:39;18.83;;;18.23;;
908;SDS011;441;51.192;6.788;2023-12-28T07:28:06;18.60;;;18.00;;
908;SDS011;441;51.192;6.788;2023-12-28T07:30:33;17.37;;;16.87;;
908;SDS011;441;51.192;6.788;2023-12-28T07:33:01;17.20;;;16.70;;
908;SDS011;441;51.192;6.788;2023-12-28T07:35:28;17.17;;;16.57;;
908;SDS011;441;51.192;6.788;2023-12-28T07:37:55;17.23;;;16.63;;
908;SDS011;441;51.192;6.788;2023-12-28T07:40:22;16.90;;;16.43;;
908;SDS011;441;51.192;6.788;2023-12-28T07:42:49;17.57;;;16.77;;
908;SDS011;441;51.192;6.788;2023-12-28T07:45:16;17.63;;;17.13;;
908;SDS011;441;51.192;6.788;2023-12-28T07:47:48;16.73;;;16.23;;
908;SDS011;441;51.192;6.788;2023-12-28T07:50:16;18.40;;;17.77;;
908;SDS011;441;51.192;6.788;2023-12-28T07:52:51;19.33;;;18.73;;
908;SDS011;441;51.192;6.788;2023-12-28T07:55:25;19.00;;;18.50;;
908;SDS011;441;51.192;6.788;2023-12-28T07:57:53;18.07;;;17.50;;
908;SDS011;441;51.192;6.788;2023-12-28T08:00:23;19.33;;;18.73;;
908;SDS011;441;51.192;6.788;2023-12-28T08:02:51;20.60;;;19.70;;
908;SDS011;441;51.192;6.788;2023-12-28T08:05:27;18.20;;;17.70;;
908;SDS011;441;51.192;6.788;2023-12-28T08:07:54;18.40;;;17.80;;
908;SDS011;441;51.192;6.788;2023-12-28T08:10:21;20.53;;;19.80;;
908;SDS011;441;51.192;6.788;2023-12-28T08:12:50;18.80;;;18.20;;
908;SDS011;441;51.192;6.788;2023-12-28T08:15:19;18.33;;;17.80;;
908;SDS011;441;51.192;6.788;2023-12-28T08:17:47;19.60;;;19.00;;
908;SDS011;441;51.192;6.788;2023-12-28T08:20:16;20.67;;;19.77;;
908;SDS011;441;51.192;6.788;2023-12-28T08:22:51;18.30;;;17.60;;
908;SDS011;441;51.192;6.788;2023-12-28T08:25:18;21.50;;;20.80;;
908;SDS011;441;51.192;6.788;2023-12-28T08:27:47;20.70;;;20.00;;
908;SDS011;441;51.192;6.788;2023-12-28T08:30:15;20.50;;;19.70;;
908;SDS011;441;51.192;6.788;2023-12-28T08:32:43;21.90;;;21.10;;
908;SDS011;441;51.192;6.788;2023-12-28T08:35:10;21.00;;;20.10;;
908;SDS011;441;51.192;6.788;2023-12-28T08:37:37;21.27;;;20.37;;
908;SDS011;441;51.192;6.788;2023-12-28T08:40:11;21.93;;;20.93;;
908;SDS011;441;51.192;6.788;2023-12-28T08:42:41;22.90;;;21.40;;
908;SDS011;441;51.192;6.788;2023-12-28T08:45:10;25.43;;;23.87;;
908;SDS011;441;51.192;6.788;2023-12-28T08:47:39;24.77;;;23.40;;
908;SDS011;441;51.192;6.788;2023-12-28T08:50:09;25.10;;;23.20;;
908;SDS011;441;51.192;6.788;2023-12-28T08:52:38;25.05;;;23.13;;
908;SDS011;441;51.192;6.788;2023-12-28T08:55:05;23.83;;;22.27;;
908;SDS011;441;51.192;6.788;2023-12-28T08:57:44;23.10;;;21.67;;
908;SDS011;441;51.192;6.788;2023-12-28T09:00:18;24.20;;;22.33;;
908;SDS011;441;51.192;6.788;2023-12-28T09:02:48;25.07;;;23.50;;
908;SDS011;441;51.192;6.788;2023-12-28T09:05:16;24.00;;;22.80;;
908;SDS011;441;51.192;6.788;2023-12-28T09:07:43;21.77;;;20.27;;
908;SDS011;441;51.192;6.788;2023-12-28T09:10:15;19.70;;;18.60;;
908;SDS011;441;51.192;6.788;2023-12-28T09:12:43;24.13;;;22.80;;
908;SDS011;441;51.192;6.788;2023-12-28T09:15:10;24.63;;;23.33;;
908;SDS011;441;51.192;6.788;2023-12-28T09:17:38;25.80;;;24.10;;
908;SDS011;441;51.192;6.788;2023-12-28T09:20:06;25.27;;;23.90;;
908;SDS011;441;51.192;6.788;2023-12-28T09:22:33;24.17;;;23.17;;
908;SDS011;441;51.192;6.788;2023-12-28T09:25:00;25.27;;;24.07;;
908;SDS011;441;51.192;6.788;2023-12-28T09:27:29;24.40;;;23.30;;
908;SDS011;441;51.192;6.788;2023-12-28T09:29:56;23.30;;;22.03;;
908;SDS011;441;51.192;6.788;2023-12-28T09:32:22;22.60;;;21.60;;
908;SDS011;441;51.192;6.788;2023-12-28T09:34:49;24.53;;;23.40;;
908;SDS011;441;51.192;6.788;2023-12-28T09:37:16;24.50;;;23.50;;
908;SDS011;441;51.192;6.788;2023-12-28T09:39:43;23.00;;;21.93;;
908;SDS011;441;51.192;6.788;2023-12-28T09:42:13;24.43;;;23.23;;
908;SDS011;441;51.192;6.788;2023-12-28T09:44:50;22.20;;;21.30;;
908;SDS011;441;51.192;6.788;2023-12-28T09:47:17;22.00;;;21.13;;
908;SDS011;441;51.192;6.788;2023-12-28T09:49:45;23.90;;;22.90;;
908;SDS011;441;51.192;6.788;2023-12-28T09:52:13;22.67;;;21.77;;
908;SDS011;441;51.192;6.788;2023-12-28T09:54:40;22.83;;;21.73;;
908;SDS011;441;51.192;6.788;2023-12-28T09:57:07;22.67;;;21.50;;
908;SDS011;441;51.192;6.788;2023-12-28T09:59:34;21.43;;;20.33;;
908;SDS011;441;51.192;6.788;2023-12-28T10:02:03;21.37;;;20.30;;
908;SDS011;441;51.192;6.788;2023-12-28T10:04:30;19.97;;;19.27;;
908;SDS011;441;51.192;6.788;2023-12-28T10:06:57;22.00;;;21.20;;
908;SDS011;441;51.192;6.788;2023-12-28T10:09:25;22.63;;;21.60;;
908;SDS011;441;51.192;6.788;2023-12-28T10:11:53;21.10;;;20.30;;
908;SDS011;441;51.192;6.788;2023-12-28T10:14:20;21.50;;;20.60;;
908;SDS011;441;51.192;6.788;2023-12-28T10:16:47;21.13;;;20.20;;
908;SDS011;441;51.192;6.788;2023-12-28T10:19:15;20.93;;;20.23;;
908;SDS011;441;51.192;6.788;2023-12-28T10:21:47;20.77;;;19.83;;
908;SDS011;441;51.192;6.788;2023-12-28T10:24:14;21.50;;;20.70;;
908;SDS011;441;51.192;6.788;2023-12-28T10:26:41;20.30;;;19.10;;
908;SDS011;441;51.192;6.788;2023-12-28T10:29:08;21.03;;;20.23;;
908;SDS011;441;51.192;6.788;2023-12-28T10:31:35;22.47;;;21.57;;
908;SDS011;441;51.192;6.788;2023-12-28T10:34:04;21.53;;;20.73;;
908;SDS011;441;51.192;6.788;2023-12-28T10:36:32;20.80;;;19.90;;
908;SDS011;441;51.192;6.788;2023-12-28T10:39:01;20.13;;;19.33;;
908;SDS011;441;51.192;6.788;2023-12-28T10:41:30;20.63;;;19.60;;
908;SDS011;441;51.192;6.788;2023-12-28T10:44:02;20.43;;;19.73;;
908;SDS011;441;51.192;6.788;2023-12-28T10:46:32;20.40;;;19.80;;
908;SDS011;441;51.192;6.788;2023-12-28T10:49:04;21.30;;;20.50;;
908;SDS011;441;51.192;6.788;2023-12-28T10:51:37;21.40;;;20.50;;
908;SDS011;441;51.192;6.788;2023-12-28T10:54:10;21.63;;;20.73;;
908;SDS011;441;51.192;6.788;2023-12-28T10:56:52;20.33;;;19.53;;
908;SDS011;441;51.192;6.788;2023-12-28T10:59:27;21.67;;;20.67;;
908;SDS011;441;51.192;6.788;2023-12-28T11:02:01;20.17;;;19.47;;
908;SDS011;441;51.192;6.788;2023-12-28T11:04:31;19.60;;;18.90;;
908;SDS011;441;51.192;6.788;2023-12-28T11:07:07;21.13;;;20.43;;
908;SDS011;441;51.192;6.788;2023-12-28T11:09:36;19.97;;;19.27;;
908;SDS011;441;51.192;6.788;2023-12-28T11:12:04;20.33;;;19.30;;
908;SDS011;441;51.192;6.788;2023-12-28T11:14:35;19.50;;;18.80;;
908;SDS011;441;51.192;6.788;2023-12-28T11:17:04;20.43;;;19.73;;
908;SDS011;441;51.192;6.788;2023-12-28T11:19:31;21.03;;;20.27;;
908;SDS011;441;51.192;6.788;2023-12-28T11:22:01;21.03;;;20.23;;
908;SDS011;441;51.192;6.788;2023-12-28T11:24:30;21.03;;;20.23;;
908;SDS011;441;51.192;6.788;2023-12-28T11:26:58;21.20;;;20.40;;
908;SDS011;441;51.192;6.788;2023-12-28T11:29:25;22.17;;;21.40;;
908;SDS011;441;51.192;6.788;2023-12-28T11:31:55;21.43;;;20.73;;
908;SDS011;441;51.192;6.788;2023-12-28T11:34:27;21.03;;;20.33;;
908;SDS011;441;51.192;6.788;2023-12-28T11:36:55;22.10;;;21.30;;
908;SDS011;441;51.192;6.788;2023-12-28T11:39:26;21.03;;;20.30;;
908;SDS011;441;51.192;6.788;2023-12-28T11:41:59;21.47;;;20.67;;
908;SDS011;441;51.192;6.788;2023-12-28T11:44:28;22.30;;;21.50;;
908;SDS011;441;51.192;6.788;2023-12-28T11:46:55;22.50;;;20.97;;
908;SDS011;441;51.192;6.788;2023-12-28T11:49:24;20.33;;;19.70;;
908;SDS011;441;51.192;6.788;2023-12-28T11:51:55;21.37;;;20.57;;
908;SDS011;441;51.192;6.788;2023-12-28T11:54:24;21.67;;;20.70;;
908;SDS011;441;51.192;6.788;2023-12-28T11:56:53;21.20;;;20.40;;
908;SDS011;441;51.192;6.788;2023-12-28T11:59:20;20.63;;;19.83;;
908;SDS011;441;51.192;6.788;2023-12-28T12:01:49;20.27;;;19.50;;
908;SDS011;441;51.192;6.788;2023-12-28T12:04:16;19.70;;;19.00;;
908;SDS011;441;51.192;6.788;2023-12-28T12:06:44;19.90;;;19.30;;
908;SDS011;441;51.192;6.788;2023-12-28T12:09:11;20.60;;;19.63;;
908;SDS011;441;51.192;6.788;2023-12-28T12:11:38;20.00;;;19.30;;
908;SDS011;441;51.192;6.788;2023-12-28T12:14:08;20.30;;;19.57;;
908;SDS011;441;51.192;6.788;2023-12-28T12:16:36;21.03;;;19.93;;
908;SDS011;441;51.192;6.788;2023-12-28T12:19:03;20.30;;;19.70;;
908;SDS011;441;51.192;6.788;2023-12-28T12:21:32;21.47;;;20.57;;
908;SDS011;441;51.192;6.788;2023-12-28T12:23:59;21.20;;;20.40;;
908;SDS011;441;51.192;6.788;2023-12-28T12:26:28;20.93;;;20.23;;
908;SDS011;441;51.192;6.788;2023-12-28T12:28:56;21.00;;;20.20;;
908;SDS011;441;51.192;6.788;2023-12-28T12:31:24;20.80;;;20.00;;
908;SDS011;441;51.192;6.788;2023-12-28T12:33:52;21.47;;;20.67;;
908;SDS011;441;51.192;6.788;2023-12-28T12:36:19;20.30;;;19.70;;
908;SDS011;441;51.192;6.788;2023-12-28T12:38:47;17.67;;;16.77;;
908;SDS011;441;51.192;6.788;2023-12-28T12:41:14;21.70;;;20.87;;
908;SDS011;441;51.192;6.788;2023-12-28T12:43:41;20.67;;;19.67;;
908;SDS011;441;51.192;6.788;2023-12-28T12:46:08;21.80;;;20.70;;
908;SDS011;441;51.192;6.788;2023-12-28T12:48:36;20.83;;;19.83;;
908;SDS011;441;51.192;6.788;2023-12-28T12:51:03;20.53;;;19.77;;
908;SDS011;441;51.192;6.788;2023-12-28T12:53:34;21.93;;;21.00;;
908;SDS011;441;51.192;6.788;2023-12-28T12:56:02;20.30;;;19.50;;
908;SDS011;441;51.192;6.788;2023-12-28T12:58:30;19.27;;;18.60;;
908;SDS011;441;51.192;6.788;2023-12-28T13:00:57;19.50;;;18.80;;
908;SDS011;441;51.192;6.788;2023-12-28T13:03:27;19.90;;;19.30;;
908;SDS011;441;51.192;6.788;2023-12-28T13:05:57;20.20;;;19.40;;
908;SDS011;441;51.192;6.788;2023-12-28T13:08:24;20.80;;;19.80;;
908;SDS011;441;51.192;6.788;2023-12-28T13:10:51;21.43;;;20.63;;
908;SDS011;441;51.192;6.788;2023-12-28T13:13:18;19.87;;;19.27;;
908;SDS011;441;51.192;6.788;2023-12-28T13:15:44;20.43;;;19.73;;
908;SDS011;441;51.192;6.788;2023-12-28T13:18:11;20.80;;;20.00;;
908;SDS011;441;51.192;6.788;2023-12-28T13:20:38;19.50;;;18.80;;
908;SDS011;441;51.192;6.788;2023-12-28T13:23:07;20.20;;;19.50;;
908;SDS011;441;51.192;6.788;2023-12-28T13:25:34;20.40;;;19.60;;
908;SDS011;441;51.192;6.788;2023-12-28T13:28:00;20.70;;;19.90;;
908;SDS011;441;51.192;6.788;2023-12-28T13:30:27;20.60;;;19.60;;
908;SDS011;441;51.192;6.788;2023-12-28T13:32:54;21.70;;;21.00;;
908;SDS011;441;51.192;6.788;2023-12-28T13:35:22;19.90;;;19.27;;
908;SDS011;441;51.192;6.788;2023-12-28T13:37:49;22.47;;;21.60;;
908;SDS011;441;51.192;6.788;2023-12-28T13:40:17;21.77;;;21.07;;
908;SDS011;441;51.192;6.788;2023-12-28T13:42:44;21.90;;;21.10;;
908;SDS011;441;51.192;6.788;2023-12-28T13:45:11;20.80;;;20.10;;
908;SDS011;441;51.192;6.788;2023-12-28T13:47:38;20.53;;;19.83;;
908;SDS011;441;51.192;6.788;2023-12-28T13:50:10;20.30;;;19.60;;
908;SDS011;441;51.192;6.788;2023-12-28T13:52:38;20.63;;;19.93;;
908;SDS011;441;51.192;6.788;2023-12-28T13:55:09;21.67;;;20.97;;
908;SDS011;441;51.192;6.788;2023-12-28T13:57:41;21.50;;;20.80;;
908;SDS011;441;51.192;6.788;2023-12-28T14:00:11;21.57;;;20.83;;
908;SDS011;441;51.192;6.788;2023-12-28T14:02:44;21.13;;;20.43;;
908;SDS011;441;51.192;6.788;2023-12-28T14:05:11;21.20;;;20.10;;
908;SDS011;441;51.192;6.788;2023-12-28T14:07:39;22.03;;;21.33;;
908;SDS011;441;51.192;6.788;2023-12-28T14:10:08;21.33;;;20.33;;
908;SDS011;441;51.192;6.788;2023-12-28T14:12:46;20.80;;;20.10;;
908;SDS011;441;51.192;6.788;2023-12-28T14:15:14;21.17;;;20.47;;
908;SDS011;441;51.192;6.788;2023-12-28T14:17:42;21.57;;;20.87;;
908;SDS011;441;51.192;6.788;2023-12-28T14:20:09;20.40;;;19.80;;
908;SDS011;441;51.192;6.788;2023-12-28T14:22:37;20.50;;;19.90;;
908;SDS011;441;51.192;6.788;2023-12-28T14:25:05;19.90;;;19.30;;
908;SDS011;441;51.192;6.788;2023-12-28T14:27:33;19.07;;;18.27;;
908;SDS011;441;51.192;6.788;2023-12-28T14:30:02;20.20;;;19.20;;
908;SDS011;441;51.192;6.788;2023-12-28T14:32:31;20.07;;;19.37;;
908;SDS011;441;51.192;6.788;2023-12-28T14:34:59;19.47;;;18.87;;
908;SDS011;441;51.192;6.788;2023-12-28T14:37:26;20.30;;;19.60;;
908;SDS011;441;51.192;6.788;2023-12-28T14:39:53;20.30;;;19.70;;
908;SDS011;441;51.192;6.788;2023-12-28T14:42:19;20.17;;;19.57;;
908;SDS011;441;51.192;6.788;2023-12-28T14:44:46;20.87;;;20.23;;
908;SDS011;441;51.192;6.788;2023-12-28T14:47:18;20.23;;;19.63;;
908;SDS011;441;51.192;6.788;2023-12-28T14:49:46;19.70;;;19.10;;
908;SDS011;441;51.192;6.788;2023-12-28T14:52:13;19.23;;;18.63;;
908;SDS011;441;51.192;6.788;2023-12-28T14:54:42;18.60;;;18.00;;
908;SDS011;441;51.192;6.788;2023-12-28T14:57:12;18.83;;;18.23;;
908;SDS011;441;51.192;6.788;2023-12-28T14:59:39;19.73;;;19.03;;
908;SDS011;441;51.192;6.788;2023-12-28T15:02:06;20.30;;;19.70;;
908;SDS011;441;51.192;6.788;2023-12-28T15:04:34;19.70;;;19.10;;
908;SDS011;441;51.192;6.788;2023-12-28T15:07:03;20.03;;;19.43;;
908;SDS011;441;51.192;6.788;2023-12-28T15:09:30;20.10;;;19.50;;
908;SDS011;441;51.192;6.788;2023-12-28T15:11:58;19.07;;;18.47;;
908;SDS011;441;51.192;6.788;2023-12-28T15:14:26;19.40;;;18.80;;
908;SDS011;441;51.192;6.788;2023-12-28T15:16:53;20.97;;;20.27;;
908;SDS011;441;51.192;6.788;2023-12-28T15:19:20;18.90;;;18.40;;
908;SDS011;441;51.192;6.788;2023-12-28T15:21:49;18.70;;;18.20;;
908;SDS011;441;51.192;6.788;2023-12-28T15:24:17;19.90;;;19.30;;